Time;durP1;ratioP1;P1;durP2;ratioP2;P2;SDS_P1;SDS_P2;PMS_P1;PMS_P2;Temp;Humidity;BMP_temperature;BMP_pressure;BME280_temperature;BME280_humidity;BME280_pressure;Samples;Min_cycle;Max_cycle;Signal;HPM_P1;HPM_P2
2023/01/09 00:01:48;;;;;;;0.97;0.70;;;;;5.80;98948.00;;;;9859282;30;20212;-77
2023/01/09 00:06:52;;;;;;;1.23;0.90;;;;;5.80;98937.00;;;;9907011;30;20207;-77
2023/01/09 00:11:55;;;;;;;1.10;0.70;;;;;5.80;98933.00;;;;9861051;30;20250;-77
2023/01/09 00:16:57;;;;;;;3.03;0.93;;;;;5.80;98931.00;;;;9875356;30;20260;-77
2023/01/09 00:21:59;;;;;;;1.17;0.97;;;;;5.80;98938.00;;;;9870463;30;20269;-77
2023/01/09 00:27:01;;;;;;;3.03;0.70;;;;;5.80;98937.00;;;;9859077;30;20284;-77
2023/01/09 00:32:03;;;;;;;1.30;0.60;;;;;5.80;98942.00;;;;9899179;30;20199;-77
2023/01/09 00:37:10;;;;;;;4.33;1.17;;;;;5.90;98955.00;;;;9869517;30;20203;-77
2023/01/09 00:42:17;;;;;;;1.10;1.00;;;;;5.90;98949.00;;;;9863674;30;20258;-77
2023/01/09 00:47:24;;;;;;;3.60;1.37;;;;;5.80;98965.00;;;;9882468;30;20214;-77
2023/01/09 00:52:26;;;;;;;2.00;0.90;;;;;5.80;98968.00;;;;9872668;29;20192;-77
2023/01/09 00:57:29;;;;;;;4.10;1.10;;;;;5.80;98964.00;;;;9886016;30;20222;-76
2023/01/09 01:02:32;;;;;;;3.43;1.50;;;;;5.80;98969.00;;;;9862374;30;20273;-77
2023/01/09 01:07:41;;;;;;;2.10;0.77;;;;;5.80;98958.00;;;;9857641;30;20199;-77
2023/01/09 01:12:43;;;;;;;1.00;0.60;;;;;5.80;98967.00;;;;9842935;30;20849;-76
2023/01/09 01:17:45;;;;;;;1.07;0.70;;;;;5.70;98960.00;;;;9887272;30;20296;-77
2023/01/09 01:22:47;;;;;;;1.53;1.00;;;;;5.70;98954.00;;;;9870579;30;20223;-77
2023/01/09 01:27:49;;;;;;;2.57;0.87;;;;;5.70;98964.00;;;;9849816;30;20203;-76
2023/01/09 01:32:51;;;;;;;3.37;0.80;;;;;5.70;98964.00;;;;9904515;29;20199;-76
2023/01/09 01:37:53;;;;;;;1.97;0.70;;;;;5.70;98968.00;;;;9868777;30;20211;-76
2023/01/09 01:42:55;;;;;;;1.53;1.03;;;;;5.70;98969.00;;;;9886481;30;20299;-76
2023/01/09 01:48:18;;;;;;;0.93;0.77;;;;;5.60;98950.00;;;;9854241;30;20734;-76
2023/01/09 01:53:33;;;;;;;2.70;0.70;;;;;5.60;98956.00;;;;9871600;30;20200;-76
2023/01/09 01:58:40;;;;;;;2.27;0.60;;;;;5.60;98968.00;;;;9872132;30;20208;-76
2023/01/09 02:03:43;;;;;;;2.43;0.70;;;;;5.60;98972.00;;;;9875324;29;20279;-76
2023/01/09 02:08:45;;;;;;;3.53;0.80;;;;;5.50;98959.00;;;;9870540;30;20200;-76
2023/01/09 02:13:48;;;;;;;1.43;0.50;;;;;5.40;98964.00;;;;9849032;30;20261;-76
2023/01/09 02:18:56;;;;;;;5.00;1.00;;;;;5.50;98965.00;;;;9871423;30;20203;-76
2023/01/09 02:24:08;;;;;;;2.67;0.90;;;;;5.60;98978.00;;;;9857241;30;20244;-76
2023/01/09 02:30:01;;;;;;;6.47;0.80;;;;;5.70;98976.00;;;;9895174;30;20618;-76
2023/01/09 02:35:27;;;;;;;3.17;0.70;;;;;5.90;98975.00;;;;9886190;29;20612;-76
2023/01/09 02:40:35;;;;;;;1.97;0.73;;;;;6.00;98972.00;;;;9876272;30;20296;-76
2023/01/09 02:45:37;;;;;;;1.90;0.80;;;;;6.00;98983.00;;;;9866752;30;20208;-76
2023/01/09 02:50:50;;;;;;;4.63;0.90;;;;;6.00;98981.00;;;;9877188;30;20724;-76
2023/01/09 02:56:04;;;;;;;5.73;0.70;;;;;6.10;98952.00;;;;9885286;30;20212;-76
2023/01/09 03:01:26;;;;;;;0.87;0.80;;;;;6.20;98964.00;;;;9900446;30;20251;-76
2023/01/09 03:06:41;;;;;;;2.83;1.10;;;;;6.20;98950.00;;;;9854262;30;20202;-76
2023/01/09 03:11:51;;;;;;;3.37;1.00;;;;;6.30;98948.00;;;;9884406;30;20313;-76
2023/01/09 03:16:59;;;;;;;1.57;1.10;;;;;6.30;98942.00;;;;9870101;30;20236;-76
2023/01/09 03:22:01;;;;;;;3.77;1.33;;;;;6.40;98939.00;;;;9865770;30;20257;-76
2023/01/09 03:27:06;;;;;;;3.47;1.00;;;;;6.40;98931.00;;;;9855174;30;20227;-76
2023/01/09 03:32:08;;;;;;;3.20;0.93;;;;;6.40;98942.00;;;;9883270;30;20202;-76
2023/01/09 03:37:10;;;;;;;3.97;1.10;;;;;6.50;98942.00;;;;9880681;30;20204;-76
2023/01/09 03:42:12;;;;;;;3.73;1.13;;;;;6.50;98925.00;;;;9870583;30;20223;-76
2023/01/09 03:47:14;;;;;;;5.63;1.03;;;;;6.50;98932.00;;;;9861502;30;20200;-76
2023/01/09 03:52:16;;;;;;;2.07;1.00;;;;;6.60;98936.00;;;;9862063;30;20763;-76
2023/01/09 03:57:18;;;;;;;5.30;1.10;;;;;6.60;98925.00;;;;9877066;30;20204;-76
2023/01/09 04:02:20;;;;;;;4.33;1.10;;;;;6.60;98929.00;;;;9876300;30;20611;-76
2023/01/09 04:07:22;;;;;;;2.23;0.93;;;;;6.60;98935.00;;;;9854294;30;20726;-76
2023/01/09 04:12:24;;;;;;;4.53;1.03;;;;;6.70;98925.00;;;;9886904;30;20228;-76
2023/01/09 04:17:26;;;;;;;2.57;0.60;;;;;6.80;98920.00;;;;9868976;30;20285;-76
2023/01/09 04:22:28;;;;;;;7.00;1.13;;;;;6.90;98921.00;;;;9875478;30;20329;-76
2023/01/09 04:27:29;;;;;;;3.73;1.40;;;;;6.90;98929.00;;;;9875586;30;20194;-76
2023/01/09 04:32:31;;;;;;;4.23;1.10;;;;;7.00;98920.00;;;;9883033;29;20195;-76
2023/01/09 04:37:35;;;;;;;4.73;1.20;;;;;7.00;98926.00;;;;9860191;30;20203;-76
2023/01/09 04:42:38;;;;;;;3.17;1.20;;;;;7.00;98916.00;;;;9875198;30;20633;-76
2023/01/09 04:47:40;;;;;;;7.43;1.00;;;;;7.00;98921.00;;;;9874912;29;20227;-76
2023/01/09 04:52:42;;;;;;;7.20;1.33;;;;;7.00;98924.00;;;;9868819;30;20211;-76
2023/01/09 04:57:44;;;;;;;2.20;0.60;;;;;7.10;98940.00;;;;9869990;30;20212;-76
2023/01/09 05:02:46;;;;;;;6.00;1.10;;;;;7.00;98936.00;;;;9875473;30;20231;-75
2023/01/09 05:07:48;;;;;;;1.63;0.90;;;;;7.10;98948.00;;;;9872964;30;20200;-76
2023/01/09 05:12:51;;;;;;;2.43;1.17;;;;;7.10;98941.00;;;;9859717;30;20774;-76
2023/01/09 05:17:53;;;;;;;3.40;1.17;;;;;7.20;98946.00;;;;9889087;30;20214;-76
2023/01/09 05:22:55;;;;;;;4.97;1.80;;;;;7.20;98969.00;;;;9889101;30;20703;-76
2023/01/09 05:27:57;;;;;;;6.50;1.40;;;;;7.10;98955.00;;;;9859289;30;20672;-76
2023/01/09 05:32:59;;;;;;;5.37;0.90;;;;;7.00;98958.00;;;;9880253;29;20204;-76
2023/01/09 05:38:00;;;;;;;4.07;1.50;;;;;6.90;98968.00;;;;9878929;30;20299;-76
2023/01/09 05:43:02;;;;;;;5.80;1.07;;;;;6.80;98969.00;;;;9872668;30;20756;-76
2023/01/09 05:48:04;;;;;;;3.10;0.70;;;;;6.70;98973.00;;;;9872777;30;20214;-76
2023/01/09 05:53:06;;;;;;;5.13;1.20;;;;;6.70;98982.00;;;;9870812;30;20576;-76
2023/01/09 05:58:08;;;;;;;5.07;1.50;;;;;6.70;98977.00;;;;9855237;29;20203;-76
2023/01/09 06:03:10;;;;;;;2.43;1.03;;;;;6.80;98975.00;;;;9885546;30;20208;-75
2023/01/09 06:08:12;;;;;;;6.00;1.23;;;;;6.80;98988.00;;;;9856403;30;20237;-76
2023/01/09 06:13:14;;;;;;;5.70;1.17;;;;;6.90;98991.00;;;;9885994;30;20223;-75
2023/01/09 06:18:16;;;;;;;5.30;1.23;;;;;6.80;98990.00;;;;9874079;30;20207;-75
2023/01/09 06:23:17;;;;;;;5.00;0.97;;;;;6.80;98990.00;;;;9899604;29;20229;-76
2023/01/09 06:28:19;;;;;;;7.27;1.27;;;;;6.90;98999.00;;;;9870210;30;20207;-76
2023/01/09 06:33:21;;;;;;;2.90;1.00;;;;;6.90;99001.00;;;;9859974;29;20274;-76
2023/01/09 06:38:23;;;;;;;2.73;0.97;;;;;6.80;99010.00;;;;9867812;30;20214;-75
2023/01/09 06:43:25;;;;;;;4.30;0.97;;;;;6.80;99024.00;;;;9899111;30;20283;-75
2023/01/09 06:48:27;;;;;;;6.13;1.30;;;;;6.70;99022.00;;;;9875118;30;20256;-75
2023/01/09 06:53:29;;;;;;;4.50;1.27;;;;;6.80;99039.00;;;;9865333;30;20717;-76
2023/01/09 06:58:31;;;;;;;5.13;1.20;;;;;6.80;99049.00;;;;9870316;30;20204;-76
2023/01/09 07:03:33;;;;;;;2.97;0.90;;;;;6.80;99071.00;;;;9883347;30;20254;-76
2023/01/09 07:08:35;;;;;;;4.70;1.10;;;;;6.80;99072.00;;;;9868414;30;20204;-76
2023/01/09 07:13:37;;;;;;;2.70;0.57;;;;;6.80;99087.00;;;;9868666;30;20667;-75
2023/01/09 07:18:39;;;;;;;3.83;1.10;;;;;6.90;99095.00;;;;9870564;30;20260;-76
2023/01/09 07:23:41;;;;;;;4.53;0.93;;;;;6.90;99091.00;;;;9884437;30;20219;-76
2023/01/09 07:28:43;;;;;;;5.57;0.90;;;;;7.00;99104.00;;;;9869310;30;20340;-75
2023/01/09 07:33:44;;;;;;;2.37;1.03;;;;;7.00;99119.00;;;;9865569;29;20252;-76
2023/01/09 07:38:46;;;;;;;3.73;0.70;;;;;7.00;99141.00;;;;9884596;30;20606;-76
2023/01/09 07:43:48;;;;;;;3.60;0.87;;;;;7.00;99135.00;;;;9869501;30;20659;-76
2023/01/09 07:48:50;;;;;;;4.03;1.20;;;;;7.00;99153.00;;;;9899321;29;20204;-76
2023/01/09 07:53:52;;;;;;;3.47;0.90;;;;;7.10;99136.00;;;;9871072;30;20200;-76
2023/01/09 07:58:53;;;;;;;4.80;1.37;;;;;7.10;99164.00;;;;9876864;30;20200;-76
2023/01/09 08:03:55;;;;;;;5.20;0.97;;;;;7.10;99172.00;;;;9883193;30;20664;-76
2023/01/09 08:08:58;;;;;;;3.23;1.20;;;;;7.00;99176.00;;;;9863331;30;20644;-76
2023/01/09 08:14:00;;;;;;;5.57;1.03;;;;;7.10;99190.00;;;;9865604;30;20196;-76
2023/01/09 08:19:02;;;;;;;3.53;1.57;;;;;7.10;99198.00;;;;9875303;29;20191;-76
2023/01/09 08:24:04;;;;;;;2.97;0.80;;;;;7.00;99193.00;;;;9898977;29;20294;-76
2023/01/09 08:29:06;;;;;;;2.80;1.03;;;;;7.00;99213.00;;;;9880572;30;20212;-75
2023/01/09 08:34:08;;;;;;;4.00;1.10;;;;;7.10;99220.00;;;;9869371;30;20249;-75
2023/01/09 08:39:10;;;;;;;2.87;1.27;;;;;7.20;99221.00;;;;9853546;30;20203;-75
2023/01/09 08:49:38;;;;;;;4.40;1.30;;;;;7.30;99241.00;;;;9864352;30;20253;-75
2023/01/09 08:54:40;;;;;;;3.43;1.10;;;;;7.30;99249.00;;;;9885352;29;20200;-75
2023/01/09 08:59:42;;;;;;;4.90;1.47;;;;;7.30;99263.00;;;;9865542;29;20200;-75
2023/01/09 09:04:45;;;;;;;4.30;1.03;;;;;7.30;99266.00;;;;9883992;30;20610;-76
2023/01/09 09:09:46;;;;;;;1.57;0.70;;;;;7.40;99287.00;;;;9872646;30;20228;-76
2023/01/09 09:20:10;;;;;;;4.63;0.53;;;;;7.50;99317.00;;;;9897919;29;20959;-76
2023/01/09 09:25:14;;;;;;;1.60;0.90;;;;;7.50;99323.00;;;;9869501;30;20195;-77
2023/01/09 09:30:17;;;;;;;1.40;0.70;;;;;7.50;99326.00;;;;9888122;30;20227;-76
2023/01/09 09:35:21;;;;;;;4.13;0.80;;;;;7.60;99337.00;;;;9865576;29;20932;-76
2023/01/09 09:41:02;;;;;;;5.17;1.80;;;;;7.60;99340.00;;;;9902858;30;20216;-76
2023/01/09 09:46:27;;;;;;;2.53;1.20;;;;;7.50;99351.00;;;;9870568;30;20922;-77
2023/01/09 09:52:04;;;;;;;2.70;0.73;;;;;7.50;99370.00;;;;9885873;30;20225;-74
2023/01/09 09:57:13;;;;;;;1.70;0.80;;;;;7.50;99379.00;;;;9880634;29;20203;-76
2023/01/09 10:02:40;;;;;;;2.33;0.60;;;;;7.50;99395.00;;;;9887000;30;20293;-74
2023/01/09 10:07:48;;;;;;;3.00;0.90;;;;;7.60;99397.00;;;;9880935;29;20199;-77
2023/01/09 10:12:56;;;;;;;1.50;0.80;;;;;7.70;99406.00;;;;9890081;29;20272;-77
2023/01/09 10:18:31;;;;;;;1.53;0.70;;;;;7.70;99420.00;;;;9872331;30;20207;-74
2023/01/09 10:23:55;;;;;;;2.67;0.73;;;;;7.80;99437.00;;;;9868326;30;20649;-77
2023/01/09 10:29:14;;;;;;;1.93;0.80;;;;;8.00;99441.00;;;;9871587;30;20208;-77
2023/01/09 10:34:35;;;;;;;1.50;0.67;;;;;7.90;99449.00;;;;9854344;29;20204;-75
2023/01/09 10:39:45;;;;;;;2.90;0.70;;;;;7.80;99454.00;;;;9883939;30;20229;-75
2023/01/09 10:44:54;;;;;;;0.90;0.70;;;;;7.60;99453.00;;;;9869689;30;20215;-75
2023/01/09 10:49:58;;;;;;;1.70;1.00;;;;;7.50;99451.00;;;;9855567;29;20299;-75
2023/01/09 10:55:39;;;;;;;1.63;0.77;;;;;7.50;99459.00;;;;9881570;30;20225;-75
2023/01/09 11:00:42;;;;;;;3.93;1.33;;;;;7.50;99450.00;;;;9876258;29;20203;-75
2023/01/09 11:05:50;;;;;;;1.00;0.90;;;;;7.60;99465.00;;;;9854294;30;20235;-75
2023/01/09 11:10:58;;;;;;;2.27;1.30;;;;;8.10;99474.00;;;;9898335;29;20235;-75
2023/01/09 11:16:06;;;;;;;2.70;1.50;;;;;8.00;99480.00;;;;9898838;29;20203;-75
2023/01/09 11:21:27;;;;;;;2.37;1.47;;;;;7.80;99486.00;;;;9868443;30;20302;-75
2023/01/09 11:26:31;;;;;;;4.00;1.00;;;;;7.80;99484.00;;;;9868309;29;20257;-75
2023/01/09 11:31:33;;;;;;;3.30;0.97;;;;;7.90;99480.00;;;;9857964;30;20203;-75
2023/01/09 11:36:35;;;;;;;5.80;2.00;;;;;8.00;99483.00;;;;9872886;29;20223;-75
2023/01/09 11:41:37;;;;;;;3.00;1.40;;;;;8.20;99475.00;;;;9890775;29;20220;-75
2023/01/09 11:46:42;;;;;;;6.17;1.47;;;;;9.00;99484.00;;;;9866822;30;20196;-75
2023/01/09 11:51:44;;;;;;;4.03;1.50;;;;;8.90;99496.00;;;;9868168;29;20291;-75
2023/01/09 11:56:48;;;;;;;2.90;1.50;;;;;8.60;99512.00;;;;9854702;29;20208;-75
2023/01/09 12:02:27;;;;;;;5.73;1.57;;;;;8.50;99518.00;;;;9886755;30;20218;-75
2023/01/09 12:07:49;;;;;;;5.50;1.73;;;;;8.60;99525.00;;;;9859449;30;20203;-75
2023/01/09 12:13:14;;;;;;;4.17;1.50;;;;;8.70;99527.00;;;;9881236;30;20618;-75
2023/01/09 12:18:39;;;;;;;2.10;1.80;;;;;8.50;99528.00;;;;9883715;30;20655;-75
2023/01/09 12:24:18;;;;;;;2.73;1.57;;;;;8.70;99524.00;;;;9887259;30;20224;-75
2023/01/09 12:29:41;;;;;;;5.03;1.83;;;;;8.70;99526.00;;;;9890315;30;20208;-75
2023/01/09 12:35:13;;;;;;;3.20;1.80;;;;;8.70;99531.00;;;;9860601;30;20200;-75
2023/01/09 12:40:15;;;;;;;3.63;1.73;;;;;8.70;99525.00;;;;9844069;29;20203;-75
2023/01/09 12:45:27;;;;;;;5.80;1.77;;;;;8.80;99536.00;;;;9871741;30;20203;-75
2023/01/09 12:50:42;;;;;;;5.23;2.17;;;;;8.70;99533.00;;;;9847641;30;20619;-75
2023/01/09 12:55:54;;;;;;;11.90;2.53;;;;;9.00;99543.00;;;;9874253;29;20203;-75
2023/01/09 13:00:58;;;;;;;6.07;2.50;;;;;9.20;99552.00;;;;9869177;30;20223;-76
2023/01/09 13:06:02;;;;;;;6.67;2.10;;;;;9.20;99543.00;;;;9878819;29;20196;-76
2023/01/09 13:11:09;;;;;;;7.67;1.93;;;;;9.30;99544.00;;;;9872258;29;20247;-76
2023/01/09 13:16:30;;;;;;;4.60;1.90;;;;;9.70;99549.00;;;;9870283;30;20211;-75
2023/01/09 13:21:33;;;;;;;7.07;2.87;;;;;10.30;99557.00;;;;9868119;30;20703;-75
2023/01/09 13:26:44;;;;;;;6.37;2.50;;;;;10.40;99569.00;;;;9903076;30;20200;-75
2023/01/09 13:31:58;;;;;;;6.00;2.70;;;;;10.30;99587.00;;;;9888823;30;20851;-76
2023/01/09 13:37:00;;;;;;;5.97;2.13;;;;;10.90;99583.00;;;;9870713;30;20311;-76
2023/01/09 13:47:27;;;;;;;5.00;1.70;;;;;10.70;99609.00;;;;9873074;30;20223;-75
2023/01/09 13:52:29;;;;;;;8.23;2.20;;;;;10.20;99606.00;;;;9872369;30;20208;-75
2023/01/09 13:57:36;;;;;;;7.47;2.23;;;;;9.50;99594.00;;;;9872453;30;20442;-75
2023/01/09 14:02:37;;;;;;;7.97;2.57;;;;;9.40;99603.00;;;;9884096;30;20590;-75
2023/01/09 14:07:44;;;;;;;7.30;1.87;;;;;9.50;99612.00;;;;9871827;30;20191;-75
2023/01/09 14:12:47;;;;;;;4.10;2.10;;;;;9.50;99624.00;;;;9864867;30;20235;-75
2023/01/09 14:17:58;;;;;;;6.10;2.23;;;;;9.20;99635.00;;;;9878835;30;20287;-75
2023/01/09 14:23:00;;;;;;;8.03;2.70;;;;;8.90;99644.00;;;;9862811;30;20220;-75
2023/01/09 14:28:30;;;;;;;6.27;3.13;;;;;8.60;99652.00;;;;9857646;30;20209;-75
2023/01/09 14:33:32;;;;;;;14.37;2.53;;;;;8.40;99640.00;;;;9886132;29;20200;-75
2023/01/09 14:38:48;;;;;;;7.27;2.90;;;;;8.30;99656.00;;;;9872186;30;20227;-75
2023/01/09 14:44:02;;;;;;;6.13;2.13;;;;;8.30;99681.00;;;;9878865;30;20215;-75
2023/01/09 14:49:39;;;;;;;6.30;2.07;;;;;8.00;99674.00;;;;9898516;30;20673;-75
2023/01/09 14:54:42;;;;;;;7.63;2.70;;;;;7.90;99704.00;;;;9870706;29;20212;-75
2023/01/09 14:59:57;;;;;;;9.27;2.20;;;;;7.70;99720.00;;;;9900370;30;20629;-75
2023/01/09 15:05:04;;;;;;;3.97;1.77;;;;;7.50;99730.00;;;;9892975;30;20264;-75
2023/01/09 15:10:15;;;;;;;6.53;1.77;;;;;7.50;99746.00;;;;9898607;29;20266;-75
2023/01/09 15:15:20;;;;;;;2.80;1.33;;;;;7.50;99761.00;;;;9887967;30;20831;-74
2023/01/09 15:20:26;;;;;;;10.00;2.40;;;;;7.50;99764.00;;;;9870714;30;20207;-74
2023/01/09 15:25:36;;;;;;;6.83;1.60;;;;;7.40;99777.00;;;;9878676;29;20218;-74
2023/01/09 15:30:42;;;;;;;4.43;1.40;;;;;7.40;99790.00;;;;9884599;29;20208;-75
2023/01/09 15:35:50;;;;;;;4.63;2.00;;;;;7.30;99800.00;;;;9856959;29;20198;-74
2023/01/09 15:46:36;;;;;;;5.57;1.40;;;;;7.20;99827.00;;;;9903909;29;20211;-75
2023/01/09 15:51:41;;;;;;;8.40;1.87;;;;;7.20;99836.00;;;;9876419;30;20204;-75
2023/01/09 15:56:45;;;;;;;11.57;5.00;;;;;7.10;99842.00;;;;9893070;30;20233;-75
2023/01/09 16:07:23;;;;;;;4.80;2.20;;;;;6.80;99868.00;;;;9891244;30;20214;-75
2023/01/09 16:12:27;;;;;;;6.97;2.70;;;;;6.80;99881.00;;;;9874150;30;20238;-75
2023/01/09 16:17:30;;;;;;;5.93;1.97;;;;;6.80;99881.00;;;;9882008;30;20212;-74
2023/01/09 16:22:34;;;;;;;4.83;1.87;;;;;6.70;99906.00;;;;9888642;30;20218;-74
2023/01/09 16:27:36;;;;;;;5.43;2.23;;;;;6.70;99920.00;;;;9876608;29;20210;-74
2023/01/09 16:32:46;;;;;;;4.13;1.47;;;;;6.70;99932.00;;;;9879901;30;20207;-74
2023/01/09 16:37:48;;;;;;;5.63;2.23;;;;;6.60;99943.00;;;;9888281;30;20227;-74
2023/01/09 16:43:00;;;;;;;3.83;2.10;;;;;6.50;99955.00;;;;9857899;29;20216;-76
2023/01/09 16:48:10;;;;;;;6.27;2.07;;;;;6.50;99966.00;;;;9887703;30;20683;-76
2023/01/09 16:53:26;;;;;;;5.57;1.97;;;;;6.50;99971.00;;;;9874613;30;20207;-74
2023/01/09 16:58:30;;;;;;;4.97;2.03;;;;;6.50;99988.00;;;;9887077;30;20210;-76
2023/01/09 17:03:31;;;;;;;6.57;2.30;;;;;6.40;99986.00;;;;9887502;30;20211;-74
2023/01/09 17:08:35;;;;;;;7.90;2.30;;;;;6.50;100007.00;;;;9851190;30;20208;-75
2023/01/09 17:13:37;;;;;;;3.40;2.03;;;;;6.50;100020.00;;;;9822556;29;1098212;-76
2023/01/09 17:18:39;;;;;;;6.13;2.83;;;;;6.40;100025.00;;;;9883566;29;20215;-74
2023/01/09 17:23:41;;;;;;;5.53;2.83;;;;;6.50;100047.00;;;;9854723;30;20212;-77
2023/01/09 17:28:49;;;;;;;3.93;1.90;;;;;6.40;100056.00;;;;9853208;30;20745;-74
2023/01/09 17:33:51;;;;;;;4.97;3.33;;;;;6.40;100073.00;;;;9885713;29;20188;-74
2023/01/09 17:38:55;;;;;;;5.57;1.50;;;;;6.20;100098.00;;;;9867671;30;20199;-77
2023/01/09 17:43:58;;;;;;;1.80;1.13;;;;;5.80;100087.00;;;;9859194;30;20226;-76
2023/01/09 17:49:02;;;;;;;3.90;2.70;;;;;5.80;100101.00;;;;9872585;30;20199;-77
2023/01/09 17:54:04;;;;;;;3.47;2.93;;;;;5.90;100109.00;;;;9857721;29;20204;-76
2023/01/09 17:59:08;;;;;;;9.10;4.73;;;;;6.00;100124.00;;;;9857394;30;20203;-77
2023/01/09 18:04:11;;;;;;;9.83;3.87;;;;;6.10;100134.00;;;;9870520;30;20220;-76
2023/01/09 18:09:15;;;;;;;10.90;3.80;;;;;6.20;100156.00;;;;9876441;29;20333;-76
2023/01/09 18:14:17;;;;;;;8.63;3.83;;;;;6.20;100161.00;;;;9847442;29;20210;-75
2023/01/09 18:19:19;;;;;;;7.83;3.20;;;;;6.20;100174.00;;;;9872441;29;20207;-76
2023/01/09 18:24:21;;;;;;;7.47;2.50;;;;;6.20;100182.00;;;;9848208;30;20220;-76
2023/01/09 18:29:23;;;;;;;8.13;3.07;;;;;6.20;100210.00;;;;9850560;29;20199;-76
2023/01/09 18:34:25;;;;;;;3.23;2.23;;;;;6.10;100219.00;;;;9880628;29;20200;-75
2023/01/09 18:39:27;;;;;;;3.10;1.87;;;;;6.00;100224.00;;;;9884053;30;20667;-76
2023/01/09 18:44:29;;;;;;;4.83;1.30;;;;;5.90;100222.00;;;;9883834;30;20227;-77
2023/01/09 18:49:31;;;;;;;4.63;1.30;;;;;5.80;100235.00;;;;9867426;29;20200;-77
2023/01/09 18:54:32;;;;;;;6.23;1.33;;;;;5.70;100269.00;;;;9870150;29;20298;-77
2023/01/09 18:59:34;;;;;;;6.73;1.07;;;;;5.70;100273.00;;;;9871453;29;20208;-75
2023/01/09 19:04:36;;;;;;;6.80;1.00;;;;;5.50;100292.00;;;;9854050;30;20235;-76
2023/01/09 19:09:38;;;;;;;2.20;0.97;;;;;5.40;100302.00;;;;9868168;30;20261;-75
2023/01/09 19:14:40;;;;;;;6.50;1.67;;;;;5.40;100314.00;;;;9853513;30;20208;-75
2023/01/09 19:19:42;;;;;;;5.73;2.00;;;;;5.40;100334.00;;;;9844792;30;20208;-75
2023/01/09 19:24:44;;;;;;;6.17;1.93;;;;;5.30;100334.00;;;;9851130;30;20900;-75
2023/01/09 19:29:45;;;;;;;4.43;2.10;;;;;5.30;100343.00;;;;9876197;30;20207;-76
2023/01/09 19:34:48;;;;;;;5.00;2.20;;;;;5.30;100361.00;;;;9866453;29;20570;-77
2023/01/09 19:39:50;;;;;;;4.20;1.97;;;;;5.30;100373.00;;;;9865454;30;20187;-75
2023/01/09 19:44:52;;;;;;;6.90;2.10;;;;;5.30;100384.00;;;;9862953;30;20216;-77
2023/01/09 19:49:54;;;;;;;3.67;1.43;;;;;5.40;100379.00;;;;9866676;29;20912;-77
2023/01/09 19:54:56;;;;;;;4.27;1.23;;;;;5.60;100400.00;;;;9851891;29;20246;-77
2023/01/09 19:59:57;;;;;;;3.27;1.60;;;;;5.60;100431.00;;;;9866778;30;20229;-77
2023/01/09 20:04:59;;;;;;;6.17;1.23;;;;;5.60;100437.00;;;;9857078;30;20260;-75
2023/01/09 20:10:01;;;;;;;2.43;1.10;;;;;5.50;100444.00;;;;9879578;29;20612;-75
2023/01/09 20:15:04;;;;;;;3.60;1.23;;;;;5.50;100448.00;;;;9878605;30;20338;-77
2023/01/09 20:20:06;;;;;;;1.90;0.90;;;;;5.30;100454.00;;;;9872317;30;20212;-77
2023/01/09 20:25:09;;;;;;;5.27;1.23;;;;;5.10;100460.00;;;;9861315;30;20677;-76
2023/01/09 20:30:11;;;;;;;3.43;1.10;;;;;4.80;100449.00;;;;9904755;29;20211;-77
2023/01/09 20:35:13;;;;;;;5.60;1.90;;;;;4.60;100451.00;;;;9857433;30;20764;-77
2023/01/09 20:40:15;;;;;;;4.43;1.40;;;;;4.40;100463.00;;;;9888801;29;20664;-77
2023/01/09 20:45:17;;;;;;;13.03;2.33;;;;;4.40;100476.00;;;;9885592;30;20231;-77
2023/01/09 20:50:20;;;;;;;4.43;2.03;;;;;4.40;100477.00;;;;9873567;30;20207;-75
2023/01/09 20:55:22;;;;;;;4.97;1.63;;;;;4.30;100481.00;;;;9873017;30;20204;-77
2023/01/09 21:00:30;;;;;;;5.07;1.90;;;;;4.20;100509.00;;;;9871918;30;20203;-77
2023/01/09 21:05:32;;;;;;;6.93;2.07;;;;;4.10;100503.00;;;;9871183;30;20626;-76
2023/01/09 21:10:35;;;;;;;10.00;2.50;;;;;4.00;100516.00;;;;9859851;29;20263;-77
2023/01/09 21:15:37;;;;;;;5.23;2.33;;;;;4.00;100528.00;;;;9855192;30;20237;-77
2023/01/09 21:20:40;;;;;;;6.80;2.87;;;;;3.90;100528.00;;;;9898801;30;20200;-76
2023/01/09 21:25:43;;;;;;;5.37;2.63;;;;;4.00;100528.00;;;;9870379;29;20219;-75
2023/01/09 21:30:48;;;;;;;7.93;2.67;;;;;4.00;100541.00;;;;9874505;29;20230;-76
2023/01/09 21:35:54;;;;;;;6.23;2.80;;;;;4.10;100552.00;;;;9860049;30;20262;-77
2023/01/09 21:46:50;;;;;;;13.63;3.77;;;;;4.20;100560.00;;;;9879184;30;20604;-77
2023/01/09 21:51:40;;;;;;;8.17;3.50;;;;;4.40;100562.00;;;;9872713;30;20215;-77
2023/01/09 21:56:41;;;;;;;10.83;3.90;;;;;4.40;100573.00;;;;9842110;30;20200;-77
2023/01/09 22:01:43;;;;;;;8.87;3.10;;;;;4.30;100573.00;;;;9857115;29;20564;-77
2023/01/09 22:06:45;;;;;;;8.93;3.80;;;;;4.20;100592.00;;;;9882992;30;20525;-77
2023/01/09 22:11:47;;;;;;;8.40;3.53;;;;;4.10;100609.00;;;;9871425;30;20219;-77
2023/01/09 22:16:49;;;;;;;9.10;3.83;;;;;4.10;100629.00;;;;9864829;30;20256;-77
2023/01/09 22:21:51;;;;;;;6.27;3.00;;;;;4.10;100642.00;;;;9887148;29;20594;-76
2023/01/09 22:26:53;;;;;;;13.47;4.10;;;;;4.20;100650.00;;;;9870660;30;20719;-76
2023/01/09 22:31:55;;;;;;;11.37;3.20;;;;;4.20;100666.00;;;;9865034;29;20204;-77
2023/01/09 22:36:57;;;;;;;9.93;3.17;;;;;4.30;100688.00;;;;9849312;30;20207;-77
2023/01/09 22:41:59;;;;;;;9.67;2.90;;;;;4.30;100707.00;;;;9851932;29;20203;-76
2023/01/09 22:47:01;;;;;;;13.20;3.27;;;;;4.40;100705.00;;;;9862448;29;20532;-77
2023/01/09 22:52:03;;;;;;;13.83;3.20;;;;;4.30;100723.00;;;;9870375;29;20196;-76
2023/01/09 22:57:05;;;;;;;5.40;2.97;;;;;4.20;100729.00;;;;9869162;30;20200;-77
2023/01/09 23:02:07;;;;;;;9.87;2.43;;;;;4.20;100736.00;;;;9851257;30;20635;-77
2023/01/09 23:07:09;;;;;;;10.57;2.63;;;;;4.40;100754.00;;;;9897656;29;20286;-77
2023/01/09 23:12:11;;;;;;;8.27;2.13;;;;;4.50;100753.00;;;;9867861;30;20227;-77
2023/01/09 23:17:12;;;;;;;10.30;2.67;;;;;4.50;100767.00;;;;9869013;30;20212;-74
2023/01/09 23:22:14;;;;;;;11.40;2.60;;;;;4.50;100777.00;;;;9879488;30;20215;-76
2023/01/09 23:27:16;;;;;;;4.67;1.90;;;;;4.40;100788.00;;;;9866360;30;20223;-76
2023/01/09 23:32:18;;;;;;;9.17;2.30;;;;;4.30;100808.00;;;;9885507;29;20657;-76
2023/01/09 23:37:20;;;;;;;9.03;2.50;;;;;4.30;100809.00;;;;9864741;30;20647;-76
2023/01/09 23:47:42;;;;;;;9.67;2.47;;;;;4.40;100836.00;;;;9856911;29;20262;-76
2023/01/09 23:52:44;;;;;;;10.13;2.40;;;;;4.50;100849.00;;;;9868789;29;20211;-76
2023/01/09 23:57:47;;;;;;;5.53;2.27;;;;;4.60;100853.00;;;;9864300;30;20310;-76
